sensor_id;sensor_type;location;lat;lon;timestamp;P1;durP1;ratioP1;P2;durP2;ratioP2
43710;SDS011;29309;42.682;23.372;2022-07-10T00:01:52;12.05;;;8.90;;
43710;SDS011;29309;42.682;23.372;2022-07-10T00:04:17;12.98;;;10.45;;
43710;SDS011;29309;42.682;23.372;2022-07-10T00:06:46;13.10;;;9.48;;
43710;SDS011;29309;42.682;23.372;2022-07-10T00:09:14;12.43;;;9.82;;
43710;SDS011;29309;42.682;23.372;2022-07-10T00:11:40;9.75;;;8.30;;
43710;SDS011;29309;42.682;23.372;2022-07-10T00:14:06;13.10;;;9.90;;
43710;SDS011;29309;42.682;23.372;2022-07-10T00:16:31;12.07;;;9.55;;
43710;SDS011;29309;42.682;23.372;2022-07-10T00:18:56;14.30;;;10.25;;
43710;SDS011;29309;42.682;23.372;2022-07-10T00:21:22;13.50;;;10.45;;
43710;SDS011;29309;42.682;23.372;2022-07-10T00:23:48;12.50;;;9.38;;
43710;SDS011;29309;42.682;23.372;2022-07-10T00:26:13;11.50;;;9.57;;
43710;SDS011;29309;42.682;23.372;2022-07-10T00:28:39;14.63;;;9.75;;
43710;SDS011;29309;42.682;23.372;2022-07-10T00:31:04;11.55;;;9.40;;
43710;SDS011;29309;42.682;23.372;2022-07-10T00:33:30;12.55;;;9.82;;
43710;SDS011;29309;42.682;23.372;2022-07-10T00:35:57;12.90;;;9.90;;
43710;SDS011;29309;42.682;23.372;2022-07-10T00:38:23;14.00;;;9.30;;
43710;SDS011;29309;42.682;23.372;2022-07-10T00:40:48;13.43;;;9.77;;
43710;SDS011;29309;42.682;23.372;2022-07-10T00:43:14;12.20;;;9.35;;
43710;SDS011;29309;42.682;23.372;2022-07-10T00:45:39;14.32;;;9.35;;
43710;SDS011;29309;42.682;23.372;2022-07-10T00:48:05;13.70;;;9.25;;
43710;SDS011;29309;42.682;23.372;2022-07-10T00:50:31;15.35;;;9.93;;
43710;SDS011;29309;42.682;23.372;2022-07-10T00:52:58;13.50;;;9.82;;
43710;SDS011;29309;42.682;23.372;2022-07-10T00:55:24;12.15;;;9.57;;
43710;SDS011;29309;42.682;23.372;2022-07-10T00:57:50;15.10;;;9.63;;
43710;SDS011;29309;42.682;23.372;2022-07-10T01:00:15;12.50;;;10.15;;
43710;SDS011;29309;42.682;23.372;2022-07-10T01:02:42;14.82;;;10.05;;
43710;SDS011;29309;42.682;23.372;2022-07-10T01:05:08;13.77;;;9.82;;
43710;SDS011;29309;42.682;23.372;2022-07-10T01:07:34;12.30;;;9.98;;
43710;SDS011;29309;42.682;23.372;2022-07-10T01:10:00;10.60;;;9.27;;
43710;SDS011;29309;42.682;23.372;2022-07-10T01:12:27;14.27;;;9.70;;
43710;SDS011;29309;42.682;23.372;2022-07-10T01:14:53;12.82;;;10.35;;
43710;SDS011;29309;42.682;23.372;2022-07-10T01:17:19;13.82;;;9.80;;
43710;SDS011;29309;42.682;23.372;2022-07-10T01:19:45;14.48;;;9.85;;
43710;SDS011;29309;42.682;23.372;2022-07-10T01:22:10;16.90;;;9.55;;
43710;SDS011;29309;42.682;23.372;2022-07-10T01:24:36;13.45;;;10.30;;
43710;SDS011;29309;42.682;23.372;2022-07-10T01:27:02;15.32;;;10.82;;
43710;SDS011;29309;42.682;23.372;2022-07-10T01:29:29;13.00;;;9.48;;
43710;SDS011;29309;42.682;23.372;2022-07-10T01:31:54;11.48;;;9.02;;
43710;SDS011;29309;42.682;23.372;2022-07-10T01:34:21;14.15;;;9.85;;
43710;SDS011;29309;42.682;23.372;2022-07-10T01:36:47;12.43;;;9.43;;
43710;SDS011;29309;42.682;23.372;2022-07-10T01:39:12;12.05;;;8.75;;
43710;SDS011;29309;42.682;23.372;2022-07-10T01:41:39;19.23;;;10.13;;
43710;SDS011;29309;42.682;23.372;2022-07-10T01:44:04;13.00;;;9.65;;
43710;SDS011;29309;42.682;23.372;2022-07-10T01:46:30;10.52;;;8.85;;
43710;SDS011;29309;42.682;23.372;2022-07-10T01:48:55;12.90;;;9.32;;
43710;SDS011;29309;42.682;23.372;2022-07-10T01:51:21;12.35;;;9.43;;
43710;SDS011;29309;42.682;23.372;2022-07-10T01:53:47;11.73;;;9.30;;
43710;SDS011;29309;42.682;23.372;2022-07-10T01:56:13;10.25;;;8.63;;
43710;SDS011;29309;42.682;23.372;2022-07-10T01:58:39;10.85;;;8.80;;
43710;SDS011;29309;42.682;23.372;2022-07-10T02:01:06;12.70;;;9.55;;
43710;SDS011;29309;42.682;23.372;2022-07-10T02:03:32;9.80;;;8.68;;
43710;SDS011;29309;42.682;23.372;2022-07-10T02:06:16;13.45;;;8.57;;
43710;SDS011;29309;42.682;23.372;2022-07-10T02:08:42;10.95;;;9.05;;
43710;SDS011;29309;42.682;23.372;2022-07-10T02:11:08;14.73;;;8.93;;
43710;SDS011;29309;42.682;23.372;2022-07-10T02:13:33;10.15;;;8.90;;
43710;SDS011;29309;42.682;23.372;2022-07-10T02:15:59;14.65;;;8.90;;
43710;SDS011;29309;42.682;23.372;2022-07-10T02:18:24;9.90;;;8.68;;
43710;SDS011;29309;42.682;23.372;2022-07-10T02:20:51;12.27;;;8.82;;
43710;SDS011;29309;42.682;23.372;2022-07-10T02:23:16;10.95;;;8.55;;
43710;SDS011;29309;42.682;23.372;2022-07-10T02:25:42;10.05;;;8.30;;
43710;SDS011;29309;42.682;23.372;2022-07-10T02:28:09;10.95;;;8.30;;
43710;SDS011;29309;42.682;23.372;2022-07-10T02:30:35;10.40;;;8.35;;
43710;SDS011;29309;42.682;23.372;2022-07-10T02:33:01;10.63;;;8.23;;
43710;SDS011;29309;42.682;23.372;2022-07-10T02:35:26;12.05;;;8.63;;
43710;SDS011;29309;42.682;23.372;2022-07-10T02:37:52;11.85;;;8.95;;
43710;SDS011;29309;42.682;23.372;2022-07-10T02:40:17;11.77;;;8.43;;
43710;SDS011;29309;42.682;23.372;2022-07-10T02:42:43;10.07;;;8.40;;
43710;SDS011;29309;42.682;23.372;2022-07-10T02:45:08;10.85;;;8.52;;
43710;SDS011;29309;42.682;23.372;2022-07-10T02:47:34;11.02;;;9.30;;
43710;SDS011;29309;42.682;23.372;2022-07-10T02:50:00;12.40;;;8.98;;
43710;SDS011;29309;42.682;23.372;2022-07-10T02:52:25;12.05;;;9.32;;
43710;SDS011;29309;42.682;23.372;2022-07-10T02:54:51;11.35;;;9.32;;
43710;SDS011;29309;42.682;23.372;2022-07-10T02:57:16;11.77;;;9.00;;
43710;SDS011;29309;42.682;23.372;2022-07-10T02:59:42;13.18;;;8.73;;
43710;SDS011;29309;42.682;23.372;2022-07-10T03:02:08;10.52;;;8.93;;
43710;SDS011;29309;42.682;23.372;2022-07-10T03:04:33;13.68;;;9.13;;
43710;SDS011;29309;42.682;23.372;2022-07-10T03:06:58;12.15;;;8.07;;
43710;SDS011;29309;42.682;23.372;2022-07-10T03:09:24;12.30;;;8.90;;
43710;SDS011;29309;42.682;23.372;2022-07-10T03:11:50;11.38;;;8.45;;
43710;SDS011;29309;42.682;23.372;2022-07-10T03:14:16;12.70;;;9.23;;
43710;SDS011;29309;42.682;23.372;2022-07-10T03:16:42;10.65;;;8.35;;
43710;SDS011;29309;42.682;23.372;2022-07-10T03:19:08;11.27;;;8.25;;
43710;SDS011;29309;42.682;23.372;2022-07-10T03:21:33;12.10;;;9.35;;
43710;SDS011;29309;42.682;23.372;2022-07-10T03:23:59;14.20;;;8.45;;
43710;SDS011;29309;42.682;23.372;2022-07-10T03:26:24;13.32;;;8.48;;
43710;SDS011;29309;42.682;23.372;2022-07-10T03:28:50;13.43;;;8.07;;
43710;SDS011;29309;42.682;23.372;2022-07-10T03:31:15;11.30;;;8.85;;
43710;SDS011;29309;42.682;23.372;2022-07-10T03:33:41;8.95;;;7.80;;
43710;SDS011;29309;42.682;23.372;2022-07-10T03:36:06;9.70;;;7.80;;
43710;SDS011;29309;42.682;23.372;2022-07-10T03:38:32;10.98;;;8.13;;
43710;SDS011;29309;42.682;23.372;2022-07-10T03:40:57;11.50;;;8.25;;
43710;SDS011;29309;42.682;23.372;2022-07-10T03:43:23;9.95;;;7.78;;
43710;SDS011;29309;42.682;23.372;2022-07-10T03:45:49;9.05;;;7.72;;
43710;SDS011;29309;42.682;23.372;2022-07-10T03:48:15;9.50;;;7.60;;
43710;SDS011;29309;42.682;23.372;2022-07-10T03:50:41;11.27;;;7.63;;
43710;SDS011;29309;42.682;23.372;2022-07-10T03:53:06;9.43;;;7.47;;
43710;SDS011;29309;42.682;23.372;2022-07-10T03:55:32;9.00;;;7.20;;
43710;SDS011;29309;42.682;23.372;2022-07-10T03:57:57;9.75;;;7.93;;
43710;SDS011;29309;42.682;23.372;2022-07-10T04:00:27;12.98;;;7.57;;
43710;SDS011;29309;42.682;23.372;2022-07-10T04:02:57;8.45;;;7.47;;
43710;SDS011;29309;42.682;23.372;2022-07-10T04:05:23;9.63;;;7.03;;
43710;SDS011;29309;42.682;23.372;2022-07-10T04:07:49;12.93;;;7.57;;
43710;SDS011;29309;42.682;23.372;2022-07-10T04:10:15;8.73;;;7.15;;
43710;SDS011;29309;42.682;23.372;2022-07-10T04:12:41;10.23;;;7.43;;
43710;SDS011;29309;42.682;23.372;2022-07-10T04:15:07;10.68;;;7.53;;
43710;SDS011;29309;42.682;23.372;2022-07-10T04:17:33;8.15;;;7.10;;
43710;SDS011;29309;42.682;23.372;2022-07-10T04:19:59;11.32;;;7.88;;
43710;SDS011;29309;42.682;23.372;2022-07-10T04:22:25;8.25;;;6.63;;
43710;SDS011;29309;42.682;23.372;2022-07-10T04:24:51;11.65;;;6.07;;
43710;SDS011;29309;42.682;23.372;2022-07-10T04:27:16;7.60;;;6.40;;
43710;SDS011;29309;42.682;23.372;2022-07-10T04:29:42;7.32;;;6.20;;
43710;SDS011;29309;42.682;23.372;2022-07-10T04:32:08;7.57;;;6.68;;
43710;SDS011;29309;42.682;23.372;2022-07-10T04:34:33;9.15;;;6.75;;
43710;SDS011;29309;42.682;23.372;2022-07-10T04:36:59;11.55;;;7.35;;
43710;SDS011;29309;42.682;23.372;2022-07-10T04:39:25;10.50;;;6.80;;
43710;SDS011;29309;42.682;23.372;2022-07-10T04:41:50;11.02;;;6.80;;
43710;SDS011;29309;42.682;23.372;2022-07-10T04:44:16;7.07;;;5.10;;
43710;SDS011;29309;42.682;23.372;2022-07-10T04:46:42;6.03;;;5.40;;
43710;SDS011;29309;42.682;23.372;2022-07-10T04:49:07;10.27;;;6.13;;
43710;SDS011;29309;42.682;23.372;2022-07-10T04:51:33;5.93;;;5.32;;
43710;SDS011;29309;42.682;23.372;2022-07-10T04:53:58;6.53;;;5.30;;
43710;SDS011;29309;42.682;23.372;2022-07-10T04:56:24;6.22;;;4.97;;
43710;SDS011;29309;42.682;23.372;2022-07-10T04:58:49;6.28;;;5.18;;
43710;SDS011;29309;42.682;23.372;2022-07-10T05:01:15;6.70;;;5.10;;
43710;SDS011;29309;42.682;23.372;2022-07-10T05:03:40;9.23;;;5.45;;
43710;SDS011;29309;42.682;23.372;2022-07-10T05:06:06;11.32;;;6.35;;
43710;SDS011;29309;42.682;23.372;2022-07-10T05:08:31;8.80;;;5.38;;
43710;SDS011;29309;42.682;23.372;2022-07-10T05:10:57;7.65;;;6.15;;
43710;SDS011;29309;42.682;23.372;2022-07-10T05:13:22;9.32;;;5.30;;
43710;SDS011;29309;42.682;23.372;2022-07-10T05:15:48;6.90;;;6.05;;
43710;SDS011;29309;42.682;23.372;2022-07-10T05:18:14;5.90;;;5.03;;
43710;SDS011;29309;42.682;23.372;2022-07-10T05:20:40;7.72;;;5.68;;
43710;SDS011;29309;42.682;23.372;2022-07-10T05:23:08;6.68;;;5.63;;
43710;SDS011;29309;42.682;23.372;2022-07-10T05:25:34;6.47;;;5.00;;
43710;SDS011;29309;42.682;23.372;2022-07-10T05:28:02;9.20;;;5.20;;
43710;SDS011;29309;42.682;23.372;2022-07-10T05:30:31;7.50;;;5.93;;
43710;SDS011;29309;42.682;23.372;2022-07-10T05:32:56;8.27;;;5.30;;
43710;SDS011;29309;42.682;23.372;2022-07-10T05:35:22;8.20;;;5.53;;
43710;SDS011;29309;42.682;23.372;2022-07-10T05:37:48;6.93;;;5.85;;
43710;SDS011;29309;42.682;23.372;2022-07-10T05:40:13;7.28;;;4.97;;
43710;SDS011;29309;42.682;23.372;2022-07-10T05:42:39;7.75;;;4.95;;
43710;SDS011;29309;42.682;23.372;2022-07-10T05:45:05;8.10;;;5.97;;
43710;SDS011;29309;42.682;23.372;2022-07-10T05:47:31;13.02;;;5.88;;
43710;SDS011;29309;42.682;23.372;2022-07-10T05:49:58;6.07;;;5.22;;
43710;SDS011;29309;42.682;23.372;2022-07-10T05:52:24;6.85;;;4.93;;
43710;SDS011;29309;42.682;23.372;2022-07-10T05:54:49;5.50;;;4.75;;
43710;SDS011;29309;42.682;23.372;2022-07-10T05:57:16;7.35;;;5.10;;
43710;SDS011;29309;42.682;23.372;2022-07-10T05:59:41;6.05;;;5.00;;
43710;SDS011;29309;42.682;23.372;2022-07-10T06:02:07;7.97;;;5.55;;
43710;SDS011;29309;42.682;23.372;2022-07-10T06:04:33;6.28;;;4.72;;
43710;SDS011;29309;42.682;23.372;2022-07-10T06:06:59;5.05;;;4.43;;
43710;SDS011;29309;42.682;23.372;2022-07-10T06:09:24;4.35;;;3.95;;
43710;SDS011;29309;42.682;23.372;2022-07-10T06:11:50;5.68;;;4.22;;
43710;SDS011;29309;42.682;23.372;2022-07-10T06:14:15;7.28;;;4.53;;
43710;SDS011;29309;42.682;23.372;2022-07-10T06:16:41;6.25;;;4.57;;
43710;SDS011;29309;42.682;23.372;2022-07-10T06:19:06;6.55;;;5.53;;
43710;SDS011;29309;42.682;23.372;2022-07-10T06:21:32;4.85;;;4.13;;
43710;SDS011;29309;42.682;23.372;2022-07-10T06:23:57;5.60;;;4.05;;
43710;SDS011;29309;42.682;23.372;2022-07-10T06:26:23;6.55;;;4.45;;
43710;SDS011;29309;42.682;23.372;2022-07-10T06:28:49;5.10;;;3.67;;
43710;SDS011;29309;42.682;23.372;2022-07-10T06:31:15;7.50;;;3.88;;
43710;SDS011;29309;42.682;23.372;2022-07-10T06:33:41;5.18;;;3.95;;
43710;SDS011;29309;42.682;23.372;2022-07-10T06:36:07;4.30;;;3.55;;
43710;SDS011;29309;42.682;23.372;2022-07-10T06:38:33;5.60;;;4.15;;
43710;SDS011;29309;42.682;23.372;2022-07-10T06:40:59;6.25;;;4.28;;
43710;SDS011;29309;42.682;23.372;2022-07-10T06:43:24;4.18;;;3.30;;
43710;SDS011;29309;42.682;23.372;2022-07-10T06:45:50;4.38;;;3.10;;
43710;SDS011;29309;42.682;23.372;2022-07-10T06:48:16;12.57;;;4.72;;
43710;SDS011;29309;42.682;23.372;2022-07-10T06:50:42;6.70;;;3.45;;
43710;SDS011;29309;42.682;23.372;2022-07-10T06:53:07;3.53;;;3.13;;
43710;SDS011;29309;42.682;23.372;2022-07-10T06:55:33;3.30;;;3.00;;
43710;SDS011;29309;42.682;23.372;2022-07-10T06:57:59;4.07;;;3.05;;
43710;SDS011;29309;42.682;23.372;2022-07-10T07:00:26;4.70;;;3.30;;
43710;SDS011;29309;42.682;23.372;2022-07-10T07:02:53;3.65;;;2.90;;
43710;SDS011;29309;42.682;23.372;2022-07-10T07:05:18;3.13;;;2.83;;
43710;SDS011;29309;42.682;23.372;2022-07-10T07:07:45;4.00;;;2.67;;
43710;SDS011;29309;42.682;23.372;2022-07-10T07:10:11;4.40;;;3.03;;
43710;SDS011;29309;42.682;23.372;2022-07-10T07:12:36;4.20;;;3.45;;
43710;SDS011;29309;42.682;23.372;2022-07-10T07:15:03;3.08;;;2.60;;
43710;SDS011;29309;42.682;23.372;2022-07-10T07:17:29;2.90;;;2.60;;
43710;SDS011;29309;42.682;23.372;2022-07-10T07:20:11;3.88;;;2.60;;
43710;SDS011;29309;42.682;23.372;2022-07-10T07:22:56;4.47;;;2.70;;
43710;SDS011;29309;42.682;23.372;2022-07-10T07:25:37;6.57;;;3.33;;
43710;SDS011;29309;42.682;23.372;2022-07-10T07:28:07;7.70;;;3.20;;
43710;SDS011;29309;42.682;23.372;2022-07-10T07:30:34;5.15;;;2.72;;
43710;SDS011;29309;42.682;23.372;2022-07-10T07:33:00;2.60;;;2.40;;
43710;SDS011;29309;42.682;23.372;2022-07-10T07:35:26;7.32;;;3.22;;
43710;SDS011;29309;42.682;23.372;2022-07-10T07:37:51;6.60;;;2.75;;
43710;SDS011;29309;42.682;23.372;2022-07-10T07:40:21;6.00;;;3.60;;
43710;SDS011;29309;42.682;23.372;2022-07-10T07:42:50;4.97;;;3.38;;
43710;SDS011;29309;42.682;23.372;2022-07-10T07:45:16;4.43;;;3.15;;
43710;SDS011;29309;42.682;23.372;2022-07-10T07:47:49;6.82;;;3.50;;
43710;SDS011;29309;42.682;23.372;2022-07-10T07:50:19;4.93;;;3.55;;
43710;SDS011;29309;42.682;23.372;2022-07-10T07:52:46;4.30;;;2.90;;
43710;SDS011;29309;42.682;23.372;2022-07-10T07:55:13;6.20;;;3.10;;
43710;SDS011;29309;42.682;23.372;2022-07-10T07:57:41;3.53;;;3.00;;
43710;SDS011;29309;42.682;23.372;2022-07-10T08:00:08;3.25;;;2.58;;
43710;SDS011;29309;42.682;23.372;2022-07-10T08:02:34;6.95;;;3.40;;
43710;SDS011;29309;42.682;23.372;2022-07-10T08:05:00;5.60;;;2.53;;
43710;SDS011;29309;42.682;23.372;2022-07-10T08:10:08;3.50;;;3.10;;
43710;SDS011;29309;42.682;23.372;2022-07-10T08:12:36;12.63;;;2.55;;
43710;SDS011;29309;42.682;23.372;2022-07-10T08:15:01;4.05;;;2.42;;
43710;SDS011;29309;42.682;23.372;2022-07-10T08:17:27;3.72;;;1.90;;
43710;SDS011;29309;42.682;23.372;2022-07-10T08:19:53;4.30;;;2.30;;
43710;SDS011;29309;42.682;23.372;2022-07-10T08:22:19;3.25;;;2.10;;
43710;SDS011;29309;42.682;23.372;2022-07-10T08:24:44;3.00;;;2.70;;
43710;SDS011;29309;42.682;23.372;2022-07-10T08:27:10;6.15;;;2.30;;
43710;SDS011;29309;42.682;23.372;2022-07-10T08:29:37;5.65;;;2.65;;
43710;SDS011;29309;42.682;23.372;2022-07-10T08:32:03;4.05;;;2.42;;
43710;SDS011;29309;42.682;23.372;2022-07-10T08:34:30;4.80;;;2.70;;
43710;SDS011;29309;42.682;23.372;2022-07-10T08:36:55;8.10;;;2.67;;
43710;SDS011;29309;42.682;23.372;2022-07-10T08:39:20;2.53;;;2.20;;
43710;SDS011;29309;42.682;23.372;2022-07-10T08:41:47;2.40;;;2.20;;
43710;SDS011;29309;42.682;23.372;2022-07-10T08:44:15;4.30;;;2.35;;
43710;SDS011;29309;42.682;23.372;2022-07-10T08:46:42;4.97;;;2.88;;
43710;SDS011;29309;42.682;23.372;2022-07-10T08:49:08;3.00;;;2.08;;
43710;SDS011;29309;42.682;23.372;2022-07-10T08:51:41;5.45;;;2.88;;
43710;SDS011;29309;42.682;23.372;2022-07-10T08:54:17;6.45;;;2.40;;
43710;SDS011;29309;42.682;23.372;2022-07-10T08:56:44;4.40;;;2.33;;
43710;SDS011;29309;42.682;23.372;2022-07-10T08:59:09;3.60;;;2.28;;
43710;SDS011;29309;42.682;23.372;2022-07-10T09:01:37;3.30;;;2.35;;
43710;SDS011;29309;42.682;23.372;2022-07-10T09:04:03;3.72;;;2.75;;
43710;SDS011;29309;42.682;23.372;2022-07-10T09:06:29;3.22;;;2.15;;
43710;SDS011;29309;42.682;23.372;2022-07-10T09:08:59;4.13;;;2.17;;
43710;SDS011;29309;42.682;23.372;2022-07-10T09:11:26;5.03;;;2.58;;
43710;SDS011;29309;42.682;23.372;2022-07-10T09:14:03;2.72;;;2.10;;
43710;SDS011;29309;42.682;23.372;2022-07-10T09:16:33;6.30;;;1.90;;
43710;SDS011;29309;42.682;23.372;2022-07-10T09:19:20;3.50;;;2.30;;
43710;SDS011;29309;42.682;23.372;2022-07-10T09:21:51;4.20;;;2.58;;
43710;SDS011;29309;42.682;23.372;2022-07-10T09:24:28;2.70;;;2.40;;
43710;SDS011;29309;42.682;23.372;2022-07-10T09:27:00;2.90;;;2.03;;
43710;SDS011;29309;42.682;23.372;2022-07-10T09:29:28;4.90;;;2.58;;
43710;SDS011;29309;42.682;23.372;2022-07-10T09:31:55;11.43;;;2.33;;
43710;SDS011;29309;42.682;23.372;2022-07-10T09:34:46;6.85;;;2.28;;
43710;SDS011;29309;42.682;23.372;2022-07-10T09:37:40;4.07;;;2.65;;
43710;SDS011;29309;42.682;23.372;2022-07-10T09:40:07;5.00;;;2.50;;
43710;SDS011;29309;42.682;23.372;2022-07-10T09:42:34;4.65;;;2.60;;
43710;SDS011;29309;42.682;23.372;2022-07-10T09:47:42;6.05;;;2.13;;
43710;SDS011;29309;42.682;23.372;2022-07-10T09:50:26;2.85;;;2.30;;
43710;SDS011;29309;42.682;23.372;2022-07-10T09:52:58;3.22;;;2.13;;
43710;SDS011;29309;42.682;23.372;2022-07-10T09:55:32;2.88;;;2.33;;
43710;SDS011;29309;42.682;23.372;2022-07-10T09:58:05;3.50;;;2.35;;
43710;SDS011;29309;42.682;23.372;2022-07-10T10:00:33;3.92;;;2.20;;
43710;SDS011;29309;42.682;23.372;2022-07-10T10:03:02;2.70;;;1.95;;
43710;SDS011;29309;42.682;23.372;2022-07-10T10:05:32;4.78;;;2.60;;
43710;SDS011;29309;42.682;23.372;2022-07-10T10:08:04;3.50;;;2.28;;
43710;SDS011;29309;42.682;23.372;2022-07-10T10:10:50;1.77;;;1.60;;
43710;SDS011;29309;42.682;23.372;2022-07-10T10:13:21;2.15;;;1.77;;
43710;SDS011;29309;42.682;23.372;2022-07-10T10:15:48;7.22;;;1.98;;
43710;SDS011;29309;42.682;23.372;2022-07-10T10:18:18;3.85;;;1.95;;
43710;SDS011;29309;42.682;23.372;2022-07-10T10:20:46;2.85;;;1.95;;
43710;SDS011;29309;42.682;23.372;2022-07-10T10:23:13;2.35;;;1.92;;
43710;SDS011;29309;42.682;23.372;2022-07-10T10:25:46;3.78;;;1.90;;
43710;SDS011;29309;42.682;23.372;2022-07-10T10:28:16;1.88;;;1.75;;
43710;SDS011;29309;42.682;23.372;2022-07-10T10:30:43;3.92;;;1.67;;
43710;SDS011;29309;42.682;23.372;2022-07-10T10:35:59;3.30;;;1.50;;
43710;SDS011;29309;42.682;23.372;2022-07-10T10:44:33;3.25;;;1.90;;
43710;SDS011;29309;42.682;23.372;2022-07-10T10:46:34;2.80;;;2.05;;
43710;SDS011;29309;42.682;23.372;2022-07-10T10:49:07;2.17;;;1.75;;
43710;SDS011;29309;42.682;23.372;2022-07-10T10:54:20;3.58;;;1.80;;
43710;SDS011;29309;42.682;23.372;2022-07-10T10:56:53;2.67;;;1.90;;
43710;SDS011;29309;42.682;23.372;2022-07-10T10:59:49;3.35;;;2.25;;
43710;SDS011;29309;42.682;23.372;2022-07-10T11:10:28;2.65;;;2.05;;
43710;SDS011;29309;42.682;23.372;2022-07-10T11:26:23;12.38;;;4.00;;
43710;SDS011;29309;42.682;23.372;2022-07-10T11:29:00;3.42;;;2.33;;
43710;SDS011;29309;42.682;23.372;2022-07-10T11:31:28;4.25;;;2.20;;
43710;SDS011;29309;42.682;23.372;2022-07-10T11:33:56;4.75;;;2.85;;
43710;SDS011;29309;42.682;23.372;2022-07-10T11:36:23;7.15;;;3.75;;
43710;SDS011;29309;42.682;23.372;2022-07-10T11:41:27;4.63;;;2.38;;
43710;SDS011;29309;42.682;23.372;2022-07-10T11:43:54;2.65;;;1.83;;
43710;SDS011;29309;42.682;23.372;2022-07-10T11:46:20;3.38;;;2.65;;
43710;SDS011;29309;42.682;23.372;2022-07-10T11:48:48;3.25;;;2.83;;
43710;SDS011;29309;42.682;23.372;2022-07-10T11:51:27;7.57;;;3.03;;
43710;SDS011;29309;42.682;23.372;2022-07-10T11:53:56;3.40;;;2.30;;
43710;SDS011;29309;42.682;23.372;2022-07-10T11:56:25;3.45;;;2.50;;
43710;SDS011;29309;42.682;23.372;2022-07-10T11:58:57;2.22;;;2.03;;
43710;SDS011;29309;42.682;23.372;2022-07-10T12:01:24;3.47;;;2.28;;
43710;SDS011;29309;42.682;23.372;2022-07-10T12:03:58;3.33;;;1.77;;
43710;SDS011;29309;42.682;23.372;2022-07-10T12:06:32;5.10;;;3.40;;
43710;SDS011;29309;42.682;23.372;2022-07-10T12:09:06;2.42;;;1.75;;
43710;SDS011;29309;42.682;23.372;2022-07-10T12:11:33;2.45;;;1.95;;
43710;SDS011;29309;42.682;23.372;2022-07-10T12:16:37;5.23;;;3.40;;
43710;SDS011;29309;42.682;23.372;2022-07-10T12:19:03;4.30;;;2.90;;
43710;SDS011;29309;42.682;23.372;2022-07-10T12:21:31;4.03;;;2.10;;
43710;SDS011;29309;42.682;23.372;2022-07-10T12:23:58;3.17;;;1.88;;
43710;SDS011;29309;42.682;23.372;2022-07-10T12:26:30;2.63;;;2.00;;
43710;SDS011;29309;42.682;23.372;2022-07-10T12:28:58;3.78;;;2.30;;
43710;SDS011;29309;42.682;23.372;2022-07-10T12:31:26;2.75;;;2.05;;
43710;SDS011;29309;42.682;23.372;2022-07-10T12:34:00;4.57;;;1.63;;
43710;SDS011;29309;42.682;23.372;2022-07-10T12:39:19;3.35;;;2.33;;
43710;SDS011;29309;42.682;23.372;2022-07-10T12:41:59;3.63;;;1.77;;
43710;SDS011;29309;42.682;23.372;2022-07-10T12:44:36;6.65;;;3.85;;
43710;SDS011;29309;42.682;23.372;2022-07-10T12:47:10;6.93;;;2.45;;
43710;SDS011;29309;42.682;23.372;2022-07-10T12:52:21;2.78;;;1.80;;
43710;SDS011;29309;42.682;23.372;2022-07-10T12:55:12;3.33;;;1.67;;
43710;SDS011;29309;42.682;23.372;2022-07-10T13:00:16;2.78;;;1.50;;
43710;SDS011;29309;42.682;23.372;2022-07-10T13:02:44;3.63;;;1.90;;
43710;SDS011;29309;42.682;23.372;2022-07-10T13:05:24;5.85;;;3.30;;
43710;SDS011;29309;42.682;23.372;2022-07-10T13:07:52;1.77;;;1.10;;
43710;SDS011;29309;42.682;23.372;2022-07-10T13:10:18;3.40;;;1.65;;
43710;SDS011;29309;42.682;23.372;2022-07-10T13:12:44;2.92;;;2.03;;
43710;SDS011;29309;42.682;23.372;2022-07-10T13:15:09;12.18;;;2.38;;
43710;SDS011;29309;42.682;23.372;2022-07-10T13:17:44;1.88;;;1.40;;
43710;SDS011;29309;42.682;23.372;2022-07-10T13:20:10;4.97;;;4.10;;
43710;SDS011;29309;42.682;23.372;2022-07-10T13:22:35;4.53;;;2.65;;
43710;SDS011;29309;42.682;23.372;2022-07-10T13:25:01;4.93;;;2.35;;
43710;SDS011;29309;42.682;23.372;2022-07-10T13:27:27;3.72;;;1.58;;
43710;SDS011;29309;42.682;23.372;2022-07-10T13:29:53;3.70;;;1.10;;
43710;SDS011;29309;42.682;23.372;2022-07-10T13:32:19;3.60;;;0.90;;
43710;SDS011;29309;42.682;23.372;2022-07-10T13:34:44;1.95;;;1.00;;
43710;SDS011;29309;42.682;23.372;2022-07-10T13:37:10;1.80;;;1.20;;
43710;SDS011;29309;42.682;23.372;2022-07-10T13:39:38;1.52;;;0.93;;
43710;SDS011;29309;42.682;23.372;2022-07-10T13:42:04;3.50;;;1.20;;
43710;SDS011;29309;42.682;23.372;2022-07-10T13:44:29;4.28;;;1.83;;
43710;SDS011;29309;42.682;23.372;2022-07-10T13:46:55;1.77;;;0.90;;
43710;SDS011;29309;42.682;23.372;2022-07-10T13:49:21;1.25;;;0.88;;
43710;SDS011;29309;42.682;23.372;2022-07-10T13:51:47;2.72;;;1.00;;
43710;SDS011;29309;42.682;23.372;2022-07-10T13:54:13;1.98;;;0.98;;
43710;SDS011;29309;42.682;23.372;2022-07-10T13:56:39;1.20;;;1.02;;
43710;SDS011;29309;42.682;23.372;2022-07-10T13:59:05;2.30;;;0.90;;
43710;SDS011;29309;42.682;23.372;2022-07-10T14:01:32;1.67;;;1.08;;
43710;SDS011;29309;42.682;23.372;2022-07-10T14:03:57;2.60;;;1.00;;
43710;SDS011;29309;42.682;23.372;2022-07-10T14:06:23;1.08;;;0.90;;
43710;SDS011;29309;42.682;23.372;2022-07-10T14:08:54;2.22;;;1.00;;
43710;SDS011;29309;42.682;23.372;2022-07-10T14:11:20;4.15;;;1.10;;
43710;SDS011;29309;42.682;23.372;2022-07-10T14:13:46;3.80;;;1.10;;
43710;SDS011;29309;42.682;23.372;2022-07-10T14:16:12;5.68;;;1.10;;
43710;SDS011;29309;42.682;23.372;2022-07-10T14:18:37;2.05;;;1.08;;
43710;SDS011;29309;42.682;23.372;2022-07-10T14:21:07;2.45;;;1.15;;
43710;SDS011;29309;42.682;23.372;2022-07-10T14:23:34;1.40;;;1.05;;
43710;SDS011;29309;42.682;23.372;2022-07-10T14:26:01;1.27;;;0.90;;
43710;SDS011;29309;42.682;23.372;2022-07-10T14:28:27;4.05;;;0.90;;
43710;SDS011;29309;42.682;23.372;2022-07-10T14:30:53;1.63;;;0.80;;
43710;SDS011;29309;42.682;23.372;2022-07-10T14:33:20;2.92;;;1.00;;
43710;SDS011;29309;42.682;23.372;2022-07-10T14:35:46;4.88;;;2.00;;
43710;SDS011;29309;42.682;23.372;2022-07-10T14:38:11;3.20;;;1.08;;
43710;SDS011;29309;42.682;23.372;2022-07-10T14:40:37;5.63;;;1.65;;
43710;SDS011;29309;42.682;23.372;2022-07-10T14:43:02;3.70;;;1.08;;
43710;SDS011;29309;42.682;23.372;2022-07-10T14:45:28;6.78;;;2.25;;
43710;SDS011;29309;42.682;23.372;2022-07-10T14:47:53;3.10;;;0.95;;
43710;SDS011;29309;42.682;23.372;2022-07-10T14:50:20;2.55;;;1.27;;
43710;SDS011;29309;42.682;23.372;2022-07-10T14:52:46;2.25;;;0.90;;
43710;SDS011;29309;42.682;23.372;2022-07-10T14:55:12;2.78;;;1.00;;
43710;SDS011;29309;42.682;23.372;2022-07-10T14:57:38;1.83;;;1.10;;
43710;SDS011;29309;42.682;23.372;2022-07-10T15:00:03;1.38;;;1.17;;
43710;SDS011;29309;42.682;23.372;2022-07-10T15:02:30;1.77;;;1.00;;
43710;SDS011;29309;42.682;23.372;2022-07-10T15:04:56;2.38;;;1.60;;
43710;SDS011;29309;42.682;23.372;2022-07-10T15:07:21;2.28;;;1.00;;
43710;SDS011;29309;42.682;23.372;2022-07-10T15:09:47;2.13;;;1.20;;
43710;SDS011;29309;42.682;23.372;2022-07-10T15:12:13;3.13;;;1.08;;
43710;SDS011;29309;42.682;23.372;2022-07-10T15:14:39;1.58;;;1.05;;
43710;SDS011;29309;42.682;23.372;2022-07-10T15:17:07;2.05;;;1.00;;
43710;SDS011;29309;42.682;23.372;2022-07-10T15:19:32;2.60;;;0.93;;
43710;SDS011;29309;42.682;23.372;2022-07-10T15:21:58;6.88;;;3.35;;
43710;SDS011;29309;42.682;23.372;2022-07-10T15:24:24;2.95;;;1.70;;